»·PEaware :: N149CD KSAN-KVNY

N149CD :: KSAN-KVNY

FLIGHT INFORMATION

Flight Status: Arrived
Operator: Privately registered:
United States
More flights under this callsign
Pilot: Nathan E. (30132)
Aircraft: CIRRUS SR-22
(SR22)
More flights by this aircraft type
Origin: KSAN San Diego Intl-Lindbergh
United States
Destination: KVNY Van Nuys
United States
More flights between these airports :: More routes between these airports
Route: OCN V23 POPPR SMO125 SMO SMO317 CANOG
File this flight plan on PilotEdge
Remarks: TEC route SANP15
Altitude:
(Current/Filed)
6,000ft
Speed:
(Current/Filed)
170kts
Departed: 09-Jan-21 03:05 PM
Arrived: 09-Jan-21 03:53 PM
Distance/Time
Traveled:
110nm/0:48
Distance/Time
To Go:
Arrived

Flight Plot

Page will automatically refresh every two minutes.


Map Options




Map Legend


Flown Route
Filed Route
Departure Airport
Arrival Airport
Navaid (VOR, NDB)
Fix

Horizontal Profiles

Position Reports

Time Latitude Longitude Heading Altitude Ground
Speed
09-Jan-21 14:43 32.733335 -117.178174 17 20ft 0kts
09-Jan-21 14:44 32.733335 -117.178174 17 20ft 0kts
09-Jan-21 14:45 32.733335 -117.178174 17 20ft 0kts
09-Jan-21 14:46 32.733335 -117.178174 17 20ft 0kts
09-Jan-21 14:47 32.733335 -117.178174 17 20ft 0kts
09-Jan-21 14:48 32.733335 -117.178174 17 20ft 0kts
09-Jan-21 14:49 32.733335 -117.178174 17 20ft 0kts
09-Jan-21 14:50 32.733335 -117.178174 17 20ft 0kts
09-Jan-21 14:51 32.733335 -117.178174 17 20ft 0kts
09-Jan-21 14:52 32.733335 -117.178174 17 20ft 0kts
09-Jan-21 14:53 32.733335 -117.178174 17 20ft 0kts
09-Jan-21 14:54 32.733335 -117.178174 17 20ft 0kts
09-Jan-21 14:55 32.733335 -117.178174 17 20ft 0kts
09-Jan-21 14:56 32.733348 -117.178172 1 20ft 0kts
09-Jan-21 14:57 32.733369 -117.179583 195 20ft 9kts
09-Jan-21 14:58 32.731799 -117.177682 104 20ft 10kts
09-Jan-21 14:59 32.731232 -117.175413 275 20ft 0kts
09-Jan-21 15:00 32.731232 -117.175413 275 20ft 0kts
09-Jan-21 15:01 32.731232 -117.175413 275 20ft 0kts
09-Jan-21 15:02 32.731232 -117.175413 275 20ft 0kts
09-Jan-21 15:03 32.730212 -117.175885 284 20ft 12kts
09-Jan-21 15:04 32.736696 -117.203340 283 673ft 119kts
09-Jan-21 15:05 32.759300 -117.229117 321 1977ft 121kts
09-Jan-21 15:06 32.789587 -117.250149 334 3032ft 120kts
09-Jan-21 15:07 32.821245 -117.262123 334 4100ft 119kts
09-Jan-21 15:08 32.852884 -117.273887 334 5062ft 118kts
09-Jan-21 15:09 32.884301 -117.285515 335 5930ft 118kts
09-Jan-21 15:10 32.920629 -117.298979 336 6001ft 145kts
09-Jan-21 15:11 32.960085 -117.313529 336 5996ft 147kts
09-Jan-21 15:12 32.999462 -117.328123 337 5996ft 147kts
09-Jan-21 15:13 33.038772 -117.342700 338 5997ft 148kts
09-Jan-21 15:14 33.078435 -117.357418 338 5997ft 149kts
09-Jan-21 15:15 33.118466 -117.372286 339 5999ft 150kts
09-Jan-21 15:16 33.158810 -117.387263 339 5997ft 151kts
09-Jan-21 15:17 33.199491 -117.402399 338 5995ft 152kts
09-Jan-21 15:18 33.240407 -117.418285 323 5989ft 151kts
09-Jan-21 15:19 33.271036 -117.453180 313 5991ft 151kts
09-Jan-21 15:20 33.301540 -117.488617 312 5988ft 152kts
09-Jan-21 15:21 33.331926 -117.524050 312 5988ft 152kts
09-Jan-21 15:22 33.362541 -117.559856 313 5999ft 151kts
09-Jan-21 15:23 33.393029 -117.595391 312 5998ft 152kts
09-Jan-21 15:24 33.423634 -117.631210 313 6001ft 152kts
09-Jan-21 15:25 33.454319 -117.667126 312 6006ft 152kts
09-Jan-21 15:26 33.484739 -117.702790 312 6011ft 152kts
09-Jan-21 15:27 33.515195 -117.738532 312 6014ft 152kts
09-Jan-21 15:28 33.545650 -117.774338 312 6016ft 151kts
09-Jan-21 15:30 33.576125 -117.810167 312 6018ft 151kts
09-Jan-21 15:31 33.606536 -117.845962 312 6018ft 151kts
09-Jan-21 15:32 33.636884 -117.881727 312 6018ft 151kts
09-Jan-21 15:33 33.667405 -117.917729 312 6018ft 151kts
09-Jan-21 15:34 33.698055 -117.953921 312 6018ft 151kts
09-Jan-21 15:35 33.728398 -117.989786 312 6018ft 151kts
09-Jan-21 15:36 33.759087 -118.026100 313 6017ft 150kts
09-Jan-21 15:37 33.785752 -118.065399 288 6022ft 150kts
09-Jan-21 15:38 33.798598 -118.114997 287 6016ft 151kts
09-Jan-21 15:39 33.811377 -118.165056 288 6018ft 153kts
09-Jan-21 15:40 33.824159 -118.215325 288 6020ft 155kts
09-Jan-21 15:40 33.834861 -118.257528 288 6022ft 156kts
09-Jan-21 15:42 33.861573 -118.307225 320 6026ft 154kts
09-Jan-21 15:43 33.895333 -118.341142 320 5947ft 159kts
09-Jan-21 15:44 33.932028 -118.377984 320 5173ft 175kts
09-Jan-21 15:44 33.962896 -118.409026 319 5000ft 159kts
09-Jan-21 15:45 33.997892 -118.444260 319 4627ft 169kts
09-Jan-21 15:47 34.051156 -118.465050 350 3865ft 162kts
09-Jan-21 15:47 34.083809 -118.470185 349 3088ft 127kts
09-Jan-21 15:48 34.117228 -118.475499 344 2210ft 112kts
09-Jan-21 15:49 34.146390 -118.485303 2 1679ft 113kts
09-Jan-21 15:50 34.174684 -118.487078 348 1414ft 87kts
09-Jan-21 15:51 34.198375 -118.489299 352 816ft 72kts
09-Jan-21 15:52 34.206610 -118.490727 271 804ft 3kts
09-Jan-21 15:53 34.206293 -118.492540 179 804ft 0kts
09-Jan-21 15:54 34.206293 -118.492540 179 804ft 0kts

Navigation Log

Ident Type
Flight plan parsing failed, navigation log unavailable